Lida, Belarus
Current Conditions -  °F | °C
As of 4:20 AM on Thursday 18 Dec 2014 (Local Time) from EYVI Reporting Station
Haze Haze  
Wind Chill: 24°   Ceiling: 800
Heat Index: 32°   Visibility: 2.5mi
Dew Point: 30°   Wind: 10mph
Humidity: 93%   Direction: 200°SSW
Pressure: 29.71"   Gusts: NA
Location:  53.89°N, 25.28°E
Report Text: EYVI 180220Z 20009KT 4000 BR BKN008 OVC039 M00/M01 Q1006 R20/2/0195 NOSIG
Loading
Personal Weather Stations






























Interactive Weather Map New forecast layout! Learn more

10-Day Weather Forecast

Advertisements
Track Severe Weather on mobile